MCO weather

Orlando International Airport
Orlando, Florida, United States

Public forecast

Using degrees Fahrenheit for public forecast. Weather courtesy of forecast.io.

METAR (pilot weather report)

Retrieved 2017/06/28 20:53 UTC (1 hour ago):

KMCO 282053Z 05013KT 10SM SCT033 BKN060 BKN300 29/23 A3002 RMK AO2 LTG DSNT S RAE27 SLP164 CB DSNT SE-S AND DSNT NW STNRY P0000 60000 T02940233 58010

TAF (pilot weather forecast)

Retrieved 2017/06/28 18:42 UTC (3 hours ago):

TAF KMCO 281740Z 2818/2918 06010KT P6SM VCTS SCT035CB SCT080 SCT300 FM290000 07005KT P6SM SCT025 BKN070 FM290300 06003KT P6SM FEW025 SCT120 BKN250 FM291400 09006KT P6SM SCT025 SCT250